Time;durP1;ratioP1;P1;durP2;ratioP2;P2;SDS_P1;SDS_P2;PMS_P1;PMS_P2;Temp;Humidity;BMP_temperature;BMP_pressure;BME280_temperature;BME280_humidity;BME280_pressure;Samples;Min_cycle;Max_cycle;Signal;HPM_P1;HPM_P2
2021/10/16 00:00:05;;;;;;;0.50;0.40;;;5.90;99.90;;;;;;5037162;28;20227;-81
2021/10/16 00:02:31;;;;;;;0.50;0.40;;;5.90;99.90;;;;;;5038729;28;20188;-81
2021/10/16 00:04:58;;;;;;;0.50;0.40;;;5.90;99.90;;;;;;5037930;28;20199;-79
2021/10/16 00:07:25;;;;;;;0.68;0.68;;;5.90;99.90;;;;;;5038643;28;20214;-81
2021/10/16 00:09:52;;;;;;;0.50;0.40;;;5.90;99.90;;;;;;5037990;28;20215;-81
2021/10/16 00:12:18;;;;;;;0.50;0.40;;;5.90;99.90;;;;;;5037755;28;20216;-81
2021/10/16 00:14:45;;;;;;;0.50;0.40;;;5.80;99.90;;;;;;5038506;28;20218;-81
2021/10/16 00:17:13;;;;;;;0.50;0.40;;;5.80;99.90;;;;;;5038000;28;20196;-80
2021/10/16 00:19:41;;;;;;;0.50;0.40;;;5.80;99.90;;;;;;5038294;28;20241;-81
2021/10/16 00:22:08;;;;;;;0.50;0.40;;;5.90;99.90;;;;;;5038408;28;20234;-81
2021/10/16 00:24:35;;;;;;;0.50;0.40;;;5.90;99.90;;;;;;5038337;28;20698;-81
2021/10/16 00:27:01;;;;;;;0.50;0.40;;;5.90;99.90;;;;;;5037869;28;20198;-78
2021/10/16 00:29:28;;;;;;;0.50;0.40;;;5.90;99.90;;;;;;5038072;28;20977;-81
2021/10/16 00:31:55;;;;;;;0.50;0.40;;;5.90;99.90;;;;;;5037813;28;20222;-81
2021/10/16 00:34:23;;;;;;;0.50;0.40;;;5.90;99.90;;;;;;5037574;28;20203;-80
2021/10/16 00:36:50;;;;;;;0.50;0.40;;;5.90;99.90;;;;;;5037955;28;20204;-81
2021/10/16 00:39:17;;;;;;;0.50;0.40;;;5.80;99.90;;;;;;5038220;28;20219;-81
2021/10/16 00:41:43;;;;;;;0.50;0.40;;;5.80;99.90;;;;;;5037762;28;20199;-81
2021/10/16 00:44:15;;;;;;;0.50;0.40;;;5.80;99.90;;;;;;5038589;28;20204;-81
2021/10/16 00:46:43;;;;;;;0.50;0.40;;;5.80;99.90;;;;;;5038864;28;20195;-81
2021/10/16 00:49:09;;;;;;;0.50;0.40;;;5.80;99.90;;;;;;5037699;28;20230;-81
2021/10/16 00:51:38;;;;;;;0.50;0.40;;;5.70;99.90;;;;;;5038724;28;20203;-80
2021/10/16 00:54:08;;;;;;;0.50;0.40;;;5.60;99.90;;;;;;5038370;28;20223;-82
2021/10/16 00:56:36;;;;;;;0.50;0.40;;;5.50;99.90;;;;;;5038335;28;20673;-81
2021/10/16 00:59:04;;;;;;;0.50;0.50;;;5.50;99.90;;;;;;5037643;28;20670;-81
2021/10/16 01:01:31;;;;;;;0.50;0.40;;;5.60;99.90;;;;;;5037947;28;20172;-81
2021/10/16 01:03:58;;;;;;;0.50;0.40;;;5.60;99.90;;;;;;5037681;28;20209;-79
2021/10/16 01:06:25;;;;;;;0.50;0.40;;;5.70;99.90;;;;;;5038773;28;20196;-81
2021/10/16 01:08:55;;;;;;;0.50;0.40;;;5.60;99.90;;;;;;5037786;28;20203;-81
2021/10/16 01:11:33;;;;;;;0.50;0.40;;;5.60;99.90;;;;;;5037572;28;20266;-81
2021/10/16 01:14:04;;;;;;;0.50;0.40;;;5.60;99.90;;;;;;5036952;28;20211;-81
2021/10/16 01:16:31;;;;;;;0.50;0.40;;;5.60;99.90;;;;;;5038455;28;20199;-80
2021/10/16 01:18:59;;;;;;;0.50;0.40;;;5.60;99.90;;;;;;5038146;28;20203;-80
2021/10/16 01:21:29;;;;;;;0.50;0.40;;;5.60;99.90;;;;;;5037795;28;20210;-81
2021/10/16 01:23:55;;;;;;;0.50;0.40;;;5.60;99.90;;;;;;5037799;28;20593;-80
2021/10/16 01:26:22;;;;;;;0.50;0.40;;;5.60;99.90;;;;;;5037318;28;20657;-81
2021/10/16 01:28:49;;;;;;;0.50;0.40;;;5.60;99.90;;;;;;5037361;28;20694;-81
2021/10/16 01:31:16;;;;;;;0.50;0.40;;;5.60;99.90;;;;;;5037785;28;20191;-81
2021/10/16 01:33:43;;;;;;;0.50;0.40;;;5.60;99.90;;;;;;5037779;28;20215;-81
2021/10/16 01:36:10;;;;;;;0.50;0.40;;;5.60;99.90;;;;;;5037640;28;20294;-80
2021/10/16 01:38:38;;;;;;;0.50;0.40;;;5.50;99.90;;;;;;5037813;28;20215;-81
2021/10/16 01:41:05;;;;;;;0.50;0.40;;;5.50;99.90;;;;;;5036879;28;20227;-81
2021/10/16 01:43:32;;;;;;;0.50;0.40;;;5.50;99.90;;;;;;5037562;28;20195;-81
2021/10/16 01:45:59;;;;;;;0.50;0.40;;;5.50;99.90;;;;;;5037929;28;20196;-81
2021/10/16 01:48:27;;;;;;;0.50;0.40;;;5.50;99.90;;;;;;5037320;28;20200;-81
2021/10/16 01:50:55;;;;;;;0.50;0.40;;;5.60;99.90;;;;;;5036502;28;20212;-80
2021/10/16 01:53:22;;;;;;;0.50;0.40;;;5.50;99.90;;;;;;5037160;28;20215;-81
2021/10/16 01:55:50;;;;;;;0.50;0.40;;;5.50;99.90;;;;;;5036397;28;20208;-81
2021/10/16 01:58:17;;;;;;;0.50;0.40;;;5.50;99.90;;;;;;5037802;28;20199;-80
2021/10/16 02:00:47;;;;;;;0.50;0.40;;;5.50;99.90;;;;;;5036532;28;20234;-80
2021/10/16 02:03:14;;;;;;;0.50;0.40;;;5.50;99.90;;;;;;5036108;28;20206;-81
2021/10/16 02:05:42;;;;;;;0.50;0.40;;;5.60;99.90;;;;;;5051887;23;20219;-79
2021/10/16 02:08:10;;;;;;;0.50;0.40;;;5.50;99.90;;;;;;5035666;28;20195;-78
2021/10/16 02:10:37;;;;;;;0.50;0.40;;;5.30;99.90;;;;;;5050249;28;20268;-78
2021/10/16 02:13:05;;;;;;;0.50;0.40;;;5.30;99.90;;;;;;5054889;28;20228;-78
2021/10/16 02:15:32;;;;;;;0.50;0.40;;;5.30;99.90;;;;;;5056254;28;20230;-78
2021/10/16 02:17:59;;;;;;;0.77;0.77;;;5.40;99.90;;;;;;5055235;28;20541;-77
2021/10/16 02:20:26;;;;;;;0.50;0.40;;;5.40;99.90;;;;;;5055309;28;20206;-78
2021/10/16 02:22:53;;;;;;;0.50;0.40;;;5.40;99.90;;;;;;5055641;28;20202;-78
2021/10/16 02:25:19;;;;;;;0.50;0.40;;;5.50;99.90;;;;;;5059746;28;20195;-78
2021/10/16 02:27:46;;;;;;;0.50;0.40;;;5.40;99.90;;;;;;5059674;28;20210;-78
2021/10/16 02:30:14;;;;;;;0.50;0.40;;;5.40;99.90;;;;;;5059552;28;20191;-78
2021/10/16 02:32:41;;;;;;;0.50;0.40;;;5.30;99.90;;;;;;5059883;28;20225;-78
2021/10/16 02:35:08;;;;;;;0.50;0.40;;;5.20;99.90;;;;;;5059793;28;20200;-78
2021/10/16 02:37:35;;;;;;;0.50;0.40;;;5.20;99.90;;;;;;5059541;28;20187;-78
2021/10/16 02:40:02;;;;;;;0.50;0.40;;;5.40;99.90;;;;;;5058771;28;20209;-77
2021/10/16 02:42:29;;;;;;;0.50;0.40;;;5.40;99.90;;;;;;5058228;28;20239;-78
2021/10/16 02:44:56;;;;;;;0.50;0.45;;;5.30;99.90;;;;;;5059305;28;20199;-79
2021/10/16 02:47:26;;;;;;;0.50;0.40;;;5.30;99.90;;;;;;5059279;28;20331;-78
2021/10/16 02:49:52;;;;;;;0.50;0.40;;;5.30;99.90;;;;;;5058444;28;20240;-78
2021/10/16 02:52:19;;;;;;;0.50;0.40;;;5.30;99.90;;;;;;5059166;28;20206;-77
2021/10/16 02:54:46;;;;;;;0.50;0.40;;;5.30;99.90;;;;;;5059202;28;20202;-78
2021/10/16 02:57:13;;;;;;;0.50;0.50;;;5.30;99.90;;;;;;5062440;28;20222;-79
2021/10/16 02:59:39;;;;;;;0.50;0.40;;;5.40;99.90;;;;;;5058550;28;20195;-80
2021/10/16 03:02:06;;;;;;;0.50;0.40;;;5.30;99.90;;;;;;5058401;28;20203;-77
2021/10/16 03:04:34;;;;;;;0.50;0.40;;;5.30;99.90;;;;;;5063190;28;20192;-80
2021/10/16 03:07:01;;;;;;;0.50;0.40;;;5.40;99.90;;;;;;5063687;28;20232;-80
2021/10/16 03:09:28;;;;;;;0.50;0.50;;;5.40;99.90;;;;;;5061224;28;20195;-80
2021/10/16 03:11:55;;;;;;;0.50;0.40;;;5.30;99.90;;;;;;5063551;28;20583;-80
2021/10/16 03:14:21;;;;;;;0.50;0.40;;;5.30;99.90;;;;;;5061601;28;20222;-78
2021/10/16 03:16:49;;;;;;;0.50;0.40;;;5.30;99.90;;;;;;5063472;28;20576;-79
2021/10/16 03:19:16;;;;;;;0.50;0.40;;;5.40;99.90;;;;;;5061599;28;20206;-79
2021/10/16 03:21:44;;;;;;;0.50;0.50;;;5.30;99.90;;;;;;5058703;28;20195;-77
2021/10/16 03:24:11;;;;;;;1.02;1.02;;;5.30;99.90;;;;;;5058294;28;20191;-78
2021/10/16 03:26:38;;;;;;;0.50;0.40;;;5.30;99.90;;;;;;5059067;28;20211;-78
2021/10/16 03:29:05;;;;;;;0.60;0.60;;;5.20;99.90;;;;;;5057853;28;20202;-79
2021/10/16 03:31:31;;;;;;;0.50;0.40;;;5.20;99.90;;;;;;5058666;28;20201;-78
2021/10/16 03:33:58;;;;;;;0.50;0.40;;;5.20;99.90;;;;;;5058193;28;20211;-78
2021/10/16 03:36:25;;;;;;;0.50;0.40;;;5.20;99.90;;;;;;5056955;28;20222;-78
2021/10/16 03:38:54;;;;;;;0.50;0.40;;;5.10;99.90;;;;;;5058808;28;20194;-78
2021/10/16 03:41:21;;;;;;;0.50;0.40;;;5.10;99.90;;;;;;5057412;28;20198;-77
2021/10/16 03:43:48;;;;;;;0.50;0.50;;;5.10;99.90;;;;;;5058703;28;20558;-78
2021/10/16 03:46:14;;;;;;;0.50;0.40;;;5.10;99.90;;;;;;5057552;28;20219;-78
2021/10/16 03:48:41;;;;;;;0.50;0.40;;;5.10;99.90;;;;;;5057749;28;20202;-78
2021/10/16 03:51:08;;;;;;;0.50;0.50;;;5.10;99.90;;;;;;5057291;28;20218;-78
2021/10/16 03:53:35;;;;;;;0.50;0.40;;;5.10;99.90;;;;;;5057782;28;20286;-78
2021/10/16 03:56:04;;;;;;;0.50;0.40;;;5.10;99.90;;;;;;5057954;28;20590;-78
2021/10/16 03:58:31;;;;;;;0.50;0.40;;;5.10;99.90;;;;;;5058085;28;20536;-78
2021/10/16 04:01:00;;;;;;;0.50;0.40;;;5.10;99.90;;;;;;5057558;28;20197;-78
2021/10/16 04:03:27;;;;;;;0.50;0.40;;;5.00;99.90;;;;;;5057496;28;20218;-78
2021/10/16 04:05:54;;;;;;;0.50;0.40;;;4.90;99.90;;;;;;5057387;28;20712;-78
2021/10/16 04:08:21;;;;;;;0.50;0.40;;;5.00;99.90;;;;;;5057878;28;20194;-78
2021/10/16 04:10:48;;;;;;;1.30;1.30;;;5.00;99.90;;;;;;5056727;28;20281;-78
2021/10/16 04:13:16;;;;;;;0.50;0.40;;;5.00;99.90;;;;;;5057918;28;20217;-78
2021/10/16 04:15:43;;;;;;;0.50;0.40;;;4.90;99.90;;;;;;5057713;28;20234;-78
2021/10/16 04:18:10;;;;;;;0.50;0.40;;;4.90;99.90;;;;;;5058013;28;20199;-78
2021/10/16 04:20:37;;;;;;;0.50;0.40;;;5.00;99.90;;;;;;5056516;28;20203;-78
2021/10/16 04:23:04;;;;;;;0.50;0.40;;;5.00;99.90;;;;;;5057493;28;20203;-78
2021/10/16 04:25:31;;;;;;;0.50;0.40;;;5.10;99.90;;;;;;5057980;28;20218;-78
2021/10/16 04:27:58;;;;;;;0.50;0.40;;;5.10;99.90;;;;;;5057316;28;20195;-78
2021/10/16 04:30:26;;;;;;;0.50;0.40;;;5.00;99.90;;;;;;5057350;28;20450;-78
2021/10/16 04:32:54;;;;;;;0.50;0.40;;;5.00;99.90;;;;;;5056941;28;20198;-79
2021/10/16 04:35:20;;;;;;;0.50;0.40;;;4.90;99.90;;;;;;5057620;28;20197;-78
2021/10/16 04:37:47;;;;;;;0.52;0.52;;;4.90;99.90;;;;;;5057647;28;20202;-78
2021/10/16 04:40:18;;;;;;;0.50;0.40;;;5.00;99.90;;;;;;5056849;28;20195;-78
2021/10/16 04:42:45;;;;;;;0.50;0.40;;;5.00;99.90;;;;;;5057446;28;20184;-78
2021/10/16 04:45:12;;;;;;;0.50;0.40;;;4.90;99.90;;;;;;5058603;28;20197;-77
2021/10/16 04:47:41;;;;;;;0.50;0.40;;;5.00;99.90;;;;;;5067660;28;20578;-78
2021/10/16 04:50:09;;;;;;;0.50;0.40;;;5.00;99.90;;;;;;5068059;28;20680;-78
2021/10/16 04:52:36;;;;;;;0.50;0.40;;;4.90;99.90;;;;;;5068249;28;20262;-78
2021/10/16 04:55:04;;;;;;;0.50;0.40;;;4.90;99.90;;;;;;5059014;28;20230;-79
2021/10/16 04:57:31;;;;;;;0.50;0.40;;;4.90;99.90;;;;;;5057298;28;20591;-78
2021/10/16 04:59:57;;;;;;;0.50;0.40;;;4.90;99.90;;;;;;5062910;28;20207;-77
2021/10/16 05:02:25;;;;;;;0.50;0.40;;;4.80;99.90;;;;;;5068386;28;20584;-79
2021/10/16 05:04:53;;;;;;;0.50;0.40;;;4.80;99.90;;;;;;5068551;28;20191;-78
2021/10/16 05:07:20;;;;;;;0.50;0.40;;;4.70;99.90;;;;;;5067443;28;20731;-79
2021/10/16 05:09:48;;;;;;;0.50;0.40;;;4.70;99.90;;;;;;5068123;28;20218;-78
2021/10/16 05:12:15;;;;;;;0.50;0.40;;;4.70;99.90;;;;;;5058585;28;20195;-78
2021/10/16 05:14:41;;;;;;;0.50;0.40;;;4.70;99.90;;;;;;5056548;28;20214;-78
2021/10/16 05:17:08;;;;;;;0.50;0.40;;;4.70;99.90;;;;;;5056854;28;20222;-79
2021/10/16 05:19:35;;;;;;;0.50;0.40;;;4.80;99.90;;;;;;5056795;28;20190;-78
2021/10/16 05:22:03;;;;;;;0.50;0.40;;;4.90;99.90;;;;;;5055229;28;20206;-77
2021/10/16 05:24:30;;;;;;;0.50;0.40;;;4.90;99.90;;;;;;5056204;28;20202;-78
2021/10/16 05:26:57;;;;;;;0.50;0.40;;;5.00;99.90;;;;;;5056455;28;20250;-78
2021/10/16 05:29:24;;;;;;;0.50;0.40;;;5.10;99.90;;;;;;5056927;28;20202;-78
2021/10/16 05:31:51;;;;;;;1.40;1.30;;;5.10;99.90;;;;;;5055506;28;20199;-79
2021/10/16 05:34:17;;;;;;;0.50;0.40;;;5.20;99.90;;;;;;5055921;28;20218;-78
2021/10/16 05:36:44;;;;;;;0.50;0.40;;;5.40;99.90;;;;;;5055942;28;20215;-77
2021/10/16 05:39:12;;;;;;;0.50;0.50;;;5.40;99.90;;;;;;5055604;28;20704;-78
2021/10/16 05:41:39;;;;;;;0.50;0.40;;;5.40;99.90;;;;;;5055525;28;20191;-78
2021/10/16 05:44:06;;;;;;;0.50;0.40;;;5.40;99.90;;;;;;5055920;28;20203;-78
2021/10/16 05:46:36;;;;;;;0.50;0.40;;;5.30;99.90;;;;;;5055625;28;20227;-78
2021/10/16 05:49:04;;;;;;;0.50;0.40;;;5.30;99.90;;;;;;5055559;28;20205;-78
2021/10/16 05:51:31;;;;;;;0.50;0.40;;;5.30;99.90;;;;;;5055090;28;20198;-78
2021/10/16 05:53:58;;;;;;;0.50;0.40;;;5.20;99.90;;;;;;5055402;28;20244;-78
2021/10/16 05:56:26;;;;;;;0.50;0.50;;;5.20;99.90;;;;;;5054980;28;20222;-78
2021/10/16 05:58:58;;;;;;;0.50;0.40;;;5.20;99.90;;;;;;5054955;28;20195;-78
2021/10/16 06:01:25;;;;;;;0.50;0.40;;;5.10;99.90;;;;;;5055059;28;20195;-78
2021/10/16 06:03:52;;;;;;;0.50;0.40;;;5.10;99.90;;;;;;5060963;28;20191;-79
2021/10/16 06:06:19;;;;;;;0.50;0.40;;;5.20;99.90;;;;;;5060676;28;20227;-78
2021/10/16 06:08:47;;;;;;;2.25;2.15;;;5.30;99.90;;;;;;5060490;28;20228;-78
2021/10/16 06:11:13;;;;;;;0.50;0.40;;;5.40;99.90;;;;;;5061097;28;20661;-78
2021/10/16 06:13:41;;;;;;;0.50;0.40;;;5.50;99.90;;;;;;5060993;28;20214;-78
2021/10/16 06:16:08;;;;;;;0.50;0.40;;;5.50;99.90;;;;;;5059687;28;20222;-79
2021/10/16 06:18:35;;;;;;;0.50;0.45;;;5.50;99.90;;;;;;5057854;28;20274;-74
2021/10/16 06:21:02;;;;;;;0.50;0.40;;;5.60;99.90;;;;;;5050910;28;20672;-76
2021/10/16 06:23:29;;;;;;;0.50;0.50;;;5.70;99.90;;;;;;5052348;28;20274;-76
2021/10/16 06:25:56;;;;;;;0.50;0.40;;;5.90;99.90;;;;;;5051793;28;20225;-76
2021/10/16 06:28:22;;;;;;;0.50;0.50;;;6.00;99.90;;;;;;5051875;28;20200;-76
2021/10/16 06:30:50;;;;;;;0.50;0.40;;;6.10;99.90;;;;;;5051301;28;20201;-76
2021/10/16 06:33:17;;;;;;;0.50;0.40;;;6.20;99.90;;;;;;5051660;28;20210;-76
2021/10/16 06:35:44;;;;;;;0.50;0.40;;;6.20;99.90;;;;;;5051914;28;20242;-77
2021/10/16 06:38:11;;;;;;;0.50;0.40;;;6.40;99.90;;;;;;5051814;28;20222;-76
2021/10/16 06:40:38;;;;;;;0.50;0.40;;;6.40;99.90;;;;;;5052986;28;20195;-76
2021/10/16 06:43:04;;;;;;;0.50;0.40;;;6.60;99.90;;;;;;5052933;28;20203;-78
2021/10/16 06:45:31;;;;;;;0.50;0.40;;;6.70;99.90;;;;;;5057696;28;20221;-79
2021/10/16 06:47:59;;;;;;;0.50;0.40;;;6.80;99.90;;;;;;5061011;28;20196;-78
2021/10/16 06:50:26;;;;;;;0.50;0.40;;;6.90;99.90;;;;;;5054315;28;20195;-77
2021/10/16 06:52:53;;;;;;;0.50;0.50;;;6.90;99.90;;;;;;5053118;28;20214;-78
2021/10/16 06:55:20;;;;;;;0.50;0.40;;;7.00;99.90;;;;;;5053016;28;20748;-78
2021/10/16 06:57:46;;;;;;;0.50;0.40;;;7.10;99.90;;;;;;5053730;28;20192;-78
2021/10/16 07:00:14;;;;;;;0.50;0.40;;;7.20;99.90;;;;;;5052844;28;20202;-78
2021/10/16 07:02:40;;;;;;;0.50;0.40;;;7.30;99.90;;;;;;5053001;28;20193;-78
2021/10/16 07:05:09;;;;;;;0.50;0.40;;;7.30;99.90;;;;;;5052833;28;20665;-78
2021/10/16 07:07:36;;;;;;;1.15;1.15;;;7.40;99.90;;;;;;5052780;28;20203;-77
2021/10/16 07:10:03;;;;;;;0.50;0.40;;;7.50;99.90;;;;;;5053445;28;20665;-78
2021/10/16 07:12:32;;;;;;;0.50;0.40;;;7.50;99.90;;;;;;5056297;28;20219;-78
2021/10/16 07:14:59;;;;;;;0.50;0.40;;;7.70;99.90;;;;;;5056910;28;20242;-78
2021/10/16 07:17:25;;;;;;;0.98;0.85;;;7.80;99.90;;;;;;5057296;28;20215;-77
2021/10/16 07:19:52;;;;;;;0.50;0.40;;;8.00;99.90;;;;;;5057684;28;20209;-77
2021/10/16 07:22:21;;;;;;;0.50;0.40;;;8.10;99.90;;;;;;5056650;28;20215;-78
2021/10/16 07:24:48;;;;;;;0.50;0.40;;;8.30;99.90;;;;;;5059770;28;20204;-78
2021/10/16 07:27:15;;;;;;;0.50;0.40;;;8.40;99.90;;;;;;5057647;28;20215;-78
2021/10/16 07:29:42;;;;;;;0.50;0.40;;;8.60;99.90;;;;;;5056972;28;20195;-78
2021/10/16 07:32:09;;;;;;;0.50;0.40;;;8.70;99.90;;;;;;5055614;28;20195;-78
2021/10/16 07:34:36;;;;;;;0.50;0.40;;;8.90;99.90;;;;;;5056588;28;20219;-78
2021/10/16 07:37:03;;;;;;;0.50;0.40;;;9.00;99.90;;;;;;5057432;28;20223;-78
2021/10/16 07:39:31;;;;;;;1.38;1.38;;;9.10;99.90;;;;;;5056259;28;20206;-77
2021/10/16 07:41:58;;;;;;;0.50;0.40;;;9.00;99.90;;;;;;5056223;28;20210;-77
2021/10/16 07:44:25;;;;;;;0.50;0.40;;;9.00;99.90;;;;;;5056428;28;20218;-77
2021/10/16 07:46:52;;;;;;;0.50;0.50;;;9.00;99.90;;;;;;5057374;28;20212;-78
2021/10/16 07:49:19;;;;;;;0.50;0.40;;;9.20;99.90;;;;;;5054059;28;20206;-77
2021/10/16 07:51:45;;;;;;;0.50;0.40;;;9.20;99.90;;;;;;5054449;28;20817;-77
2021/10/16 07:54:12;;;;;;;0.50;0.40;;;9.30;99.90;;;;;;5054527;28;20244;-77
2021/10/16 07:56:40;;;;;;;0.50;0.40;;;9.30;99.90;;;;;;5054730;28;20222;-77
2021/10/16 07:59:07;;;;;;;0.50;0.40;;;9.40;99.90;;;;;;5054026;28;20196;-77
2021/10/16 08:01:34;;;;;;;0.50;0.40;;;9.50;99.90;;;;;;5053794;28;20199;-77
2021/10/16 08:04:01;;;;;;;0.50;0.40;;;9.50;99.90;;;;;;5054016;28;20575;-76
2021/10/16 08:06:27;;;;;;;0.50;0.40;;;9.70;99.90;;;;;;5103424;23;20228;-81
2021/10/16 08:08:54;;;;;;;0.50;0.40;;;9.80;99.90;;;;;;5022055;28;20188;-82
2021/10/16 08:11:21;;;;;;;0.50;0.40;;;9.80;99.90;;;;;;5034133;28;20207;-81
2021/10/16 08:13:49;;;;;;;0.50;0.40;;;10.00;99.90;;;;;;5040408;28;20202;-80
2021/10/16 08:16:16;;;;;;;0.50;0.40;;;10.30;99.90;;;;;;5040464;28;20292;-80
2021/10/16 08:18:43;;;;;;;0.50;0.40;;;10.50;99.90;;;;;;5040364;28;20201;-81
2021/10/16 08:21:09;;;;;;;0.63;0.63;;;10.60;99.90;;;;;;5038944;28;20193;-81
2021/10/16 08:23:36;;;;;;;0.50;0.40;;;10.60;99.90;;;;;;5039591;28;20198;-81
2021/10/16 08:26:04;;;;;;;0.50;0.40;;;10.70;99.90;;;;;;5040718;28;20220;-81
2021/10/16 08:28:31;;;;;;;0.50;0.40;;;10.80;99.90;;;;;;5040429;28;20197;-81
2021/10/16 08:31:01;;;;;;;0.65;0.65;;;10.90;99.90;;;;;;5040215;28;20196;-79
2021/10/16 08:33:28;;;;;;;0.50;0.40;;;11.00;99.90;;;;;;5039829;28;20202;-83
2021/10/16 08:35:55;;;;;;;0.50;0.40;;;11.10;99.90;;;;;;5040837;28;20246;-79
2021/10/16 08:38:22;;;;;;;0.50;0.40;;;11.30;99.90;;;;;;5043698;28;20206;-79
2021/10/16 08:40:50;;;;;;;0.50;0.40;;;11.50;99.90;;;;;;5045003;28;20201;-79
2021/10/16 08:43:17;;;;;;;0.50;0.40;;;11.70;99.90;;;;;;5044221;28;20198;-81
2021/10/16 08:45:45;;;;;;;0.50;0.40;;;11.80;99.90;;;;;;5046398;28;20198;-79
2021/10/16 08:48:15;;;;;;;0.50;0.40;;;11.90;99.90;;;;;;5046895;28;20294;-81
2021/10/16 08:50:44;;;;;;;0.50;0.40;;;12.10;99.90;;;;;;5046858;28;20196;-80
2021/10/16 08:53:11;;;;;;;0.50;0.40;;;12.20;99.90;;;;;;5045888;28;20501;-78
2021/10/16 08:55:38;;;;;;;4.20;1.35;;;12.40;99.90;;;;;;5045625;28;20557;-82
2021/10/16 08:58:05;;;;;;;0.50;0.40;;;12.50;99.90;;;;;;5045008;28;20654;-80
2021/10/16 09:00:49;;;;;;;0.50;0.40;;;12.60;99.90;;;;;;5039872;28;20446;-79
2021/10/16 09:03:25;;;;;;;0.50;0.50;;;12.80;99.90;;;;;;5037389;28;20449;-80
2021/10/16 09:06:14;;;;;;;0.50;0.40;;;13.30;99.90;;;;;;5037686;28;20449;-79
2021/10/16 09:08:47;;;;;;;0.50;0.40;;;13.50;99.90;;;;;;5032335;28;20453;-79
2021/10/16 09:11:24;;;;;;;0.50;0.40;;;13.40;99.90;;;;;;5037320;28;20442;-80
2021/10/16 09:13:53;;;;;;;0.50;0.40;;;13.30;99.90;;;;;;5040464;28;20422;-79
2021/10/16 09:16:25;;;;;;;0.50;0.40;;;13.50;99.90;;;;;;5043672;28;20489;-79
2021/10/16 09:19:03;;;;;;;0.50;0.40;;;13.90;99.90;;;;;;5040901;28;20434;-79
2021/10/16 09:21:32;;;;;;;0.50;0.40;;;14.20;99.90;;;;;;5040606;28;20529;-80
2021/10/16 09:24:14;;;;;;;0.50;0.40;;;14.30;99.90;;;;;;5041508;28;20453;-79
2021/10/16 09:26:43;;;;;;;0.50;0.40;;;14.50;99.90;;;;;;5043222;28;20829;-79
2021/10/16 09:29:12;;;;;;;0.50;0.40;;;14.60;99.90;;;;;;5042924;28;20886;-80
2021/10/16 09:31:41;;;;;;;0.50;0.40;;;14.70;99.90;;;;;;5039955;28;20466;-79
2021/10/16 09:34:10;;;;;;;0.87;0.87;;;14.70;99.90;;;;;;5041623;28;20436;-79
2021/10/16 09:36:38;;;;;;;0.50;0.40;;;14.50;99.90;;;;;;5041534;28;20486;-79
2021/10/16 09:39:07;;;;;;;0.50;0.40;;;14.60;99.90;;;;;;5040605;28;20439;-80
2021/10/16 09:41:36;;;;;;;0.50;0.40;;;14.90;99.90;;;;;;5041385;28;20469;-79
2021/10/16 09:44:05;;;;;;;0.50;0.50;;;15.00;99.90;;;;;;5042908;28;20890;-79
2021/10/16 09:46:32;;;;;;;0.50;0.40;;;14.80;99.90;;;;;;5043067;28;20469;-80
2021/10/16 09:49:07;;;;;;;0.80;0.80;;;14.90;99.90;;;;;;5042273;28;20441;-80
2021/10/16 09:51:51;;;;;;;0.50;0.40;;;15.10;99.90;;;;;;5043650;28;20828;-79
2021/10/16 09:54:18;;;;;;;0.60;0.50;;;14.90;99.90;;;;;;5044269;28;20426;-80
2021/10/16 09:56:46;;;;;;;0.50;0.47;;;14.80;99.90;;;;;;5041555;28;20482;-81
2021/10/16 09:59:16;;;;;;;0.50;0.40;;;14.50;99.90;;;;;;5042767;28;20434;-79
2021/10/16 10:01:44;;;;;;;1.37;1.27;;;14.40;99.90;;;;;;5043177;28;20453;-79
2021/10/16 10:04:12;;;;;;;0.93;0.90;;;14.50;99.90;;;;;;5044374;28;20447;-78
2021/10/16 10:06:41;;;;;;;0.50;0.40;;;14.20;99.90;;;;;;5044317;28;20463;-79
2021/10/16 10:09:08;;;;;;;0.50;0.40;;;14.20;99.90;;;;;;5042562;28;20433;-80
2021/10/16 10:11:35;;;;;;;0.83;0.83;;;14.40;99.90;;;;;;5038162;28;20445;-82
2021/10/16 10:14:03;;;;;;;2.03;0.60;;;14.80;99.90;;;;;;5038481;28;20454;-80
2021/10/16 10:16:31;;;;;;;0.50;0.40;;;15.50;99.90;;;;;;5038877;28;20478;-82
2021/10/16 10:19:02;;;;;;;0.50;0.30;;;16.10;99.90;;;;;;5037773;28;20438;-79
2021/10/16 10:21:34;;;;;;;0.80;0.80;;;17.30;99.90;;;;;;5037138;28;20443;-80
2021/10/16 10:24:04;;;;;;;0.50;0.37;;;18.50;99.90;;;;;;5037976;28;20439;-80
2021/10/16 10:26:33;;;;;;;0.50;0.30;;;19.20;99.90;;;;;;5037830;28;20456;-81
2021/10/16 10:29:05;;;;;;;1.70;1.60;;;19.10;99.90;;;;;;5037585;28;20463;-81
2021/10/16 10:32:08;;;;;;;0.50;0.30;;;19.40;99.90;;;;;;5037864;28;20441;-81
2021/10/16 10:34:38;;;;;;;0.50;0.30;;;20.00;99.90;;;;;;5037324;28;20895;-80
2021/10/16 10:37:08;;;;;;;0.50;0.40;;;21.10;98.40;;;;;;5038388;28;20465;-80
2021/10/16 10:39:55;;;;;;;0.90;0.90;;;22.00;92.70;;;;;;5037300;28;21003;-81
2021/10/16 10:43:04;;;;;;;0.70;0.70;;;22.70;83.60;;;;;;5037480;28;20831;-81
2021/10/16 10:45:36;;;;;;;0.50;0.30;;;23.40;80.40;;;;;;5039055;28;20430;-82
2021/10/16 10:48:12;;;;;;;0.50;0.30;;;22.80;73.40;;;;;;5041303;28;20454;-82
2021/10/16 10:50:59;;;;;;;0.50;0.40;;;21.10;75.90;;;;;;5041047;28;20436;-81
2021/10/16 10:53:31;;;;;;;0.50;0.30;;;20.20;81.10;;;;;;5040295;28;20452;-81
2021/10/16 10:56:01;;;;;;;0.50;0.30;;;20.40;92.10;;;;;;5040295;28;20804;-82
2021/10/16 10:59:01;;;;;;;0.50;0.30;;;20.30;87.70;;;;;;5040371;28;20984;-81
2021/10/16 11:01:59;;;;;;;0.50;0.30;;;20.90;84.50;;;;;;5040730;28;20425;-81
2021/10/16 11:04:34;;;;;;;0.50;0.40;;;21.40;89.10;;;;;;5040538;28;20439;-80
2021/10/16 11:07:03;;;;;;;0.50;0.30;;;22.20;82.30;;;;;;5040356;28;20484;-81
2021/10/16 11:09:30;;;;;;;0.50;0.30;;;21.70;73.80;;;;;;5040452;28;20506;-81
2021/10/16 11:11:59;;;;;;;0.50;0.30;;;21.80;74.80;;;;;;5039936;28;20426;-81
2021/10/16 11:14:30;;;;;;;0.50;0.40;;;21.90;72.50;;;;;;5039494;28;20434;-80
2021/10/16 11:16:58;;;;;;;0.50;0.40;;;21.50;71.80;;;;;;5041443;28;20482;-79
2021/10/16 11:19:25;;;;;;;0.50;0.30;;;21.50;73.10;;;;;;5040050;28;20442;-80
2021/10/16 11:21:52;;;;;;;0.50;0.40;;;21.70;71.40;;;;;;5039814;28;20449;-80
2021/10/16 11:24:20;;;;;;;1.70;1.50;;;22.00;70.70;;;;;;5039939;28;20442;-80
2021/10/16 11:26:54;;;;;;;0.50;0.30;;;22.00;67.80;;;;;;5040533;28;20454;-81
2021/10/16 11:29:33;;;;;;;0.50;0.40;;;21.30;63.00;;;;;;5039887;28;20445;-81
2021/10/16 11:32:14;;;;;;;0.80;0.80;;;20.80;66.30;;;;;;5038873;28;20822;-81
2021/10/16 11:34:41;;;;;;;0.50;0.40;;;18.80;69.30;;;;;;5039821;28;20428;-80
2021/10/16 11:37:08;;;;;;;0.50;0.30;;;18.00;72.10;;;;;;5039542;28;20483;-82
2021/10/16 11:39:35;;;;;;;0.50;0.30;;;17.70;73.90;;;;;;5039869;28;20439;-81
2021/10/16 11:42:03;;;;;;;0.50;0.40;;;18.30;84.30;;;;;;5039297;28;20453;-81
2021/10/16 11:44:31;;;;;;;0.50;0.30;;;18.50;73.70;;;;;;5039490;28;20449;-80
2021/10/16 11:47:00;;;;;;;1.23;1.13;;;18.50;72.80;;;;;;5040112;28;20464;-78
2021/10/16 11:49:29;;;;;;;0.50;0.40;;;18.30;72.90;;;;;;5039406;28;20452;-80
2021/10/16 11:51:56;;;;;;;0.50;0.40;;;18.20;72.10;;;;;;5039618;28;20457;-80
2021/10/16 11:54:23;;;;;;;0.50;0.40;;;17.60;75.60;;;;;;5040155;28;20480;-82
2021/10/16 11:56:57;;;;;;;0.80;0.80;;;17.40;82.00;;;;;;5039302;28;20491;-80
2021/10/16 11:59:24;;;;;;;0.50;0.40;;;17.30;78.00;;;;;;5040298;28;20455;-81
2021/10/16 12:01:52;;;;;;;0.50;0.30;;;17.30;76.90;;;;;;5039464;28;20449;-81
2021/10/16 12:04:19;;;;;;;0.50;0.40;;;17.30;72.70;;;;;;5039440;28;20453;-81
2021/10/16 12:06:49;;;;;;;0.50;0.40;;;16.90;74.00;;;;;;5039142;28;20464;-82
2021/10/16 12:09:19;;;;;;;0.50;0.33;;;16.70;75.50;;;;;;5039664;28;20478;-80
2021/10/16 12:11:46;;;;;;;1.03;1.03;;;16.50;80.70;;;;;;5039249;28;20447;-80
2021/10/16 12:14:22;;;;;;;0.50;0.37;;;16.30;80.90;;;;;;5038469;28;20439;-81
2021/10/16 12:16:49;;;;;;;0.60;0.60;;;16.00;81.00;;;;;;5038715;28;20482;-80
2021/10/16 12:19:19;;;;;;;0.50;0.40;;;15.80;80.20;;;;;;5039378;28;20808;-80
2021/10/16 12:21:47;;;;;;;0.50;0.40;;;15.80;82.20;;;;;;5038991;28;20814;-81
2021/10/16 12:24:15;;;;;;;0.50;0.40;;;15.90;90.60;;;;;;5038697;28;20445;-80
2021/10/16 12:26:44;;;;;;;0.50;0.40;;;16.00;99.90;;;;;;5038514;28;20458;-80
2021/10/16 12:29:26;;;;;;;0.50;0.30;;;16.20;99.20;;;;;;5041387;28;20440;-79
2021/10/16 12:31:54;;;;;;;4.33;1.43;;;16.40;99.90;;;;;;5039311;28;20421;-81
2021/10/16 12:34:23;;;;;;;0.50;0.30;;;16.50;97.20;;;;;;5043927;28;20444;-81
2021/10/16 12:36:55;;;;;;;0.50;0.30;;;16.90;99.90;;;;;;5042915;28;20478;-81
2021/10/16 12:39:28;;;;;;;0.50;0.30;;;17.20;99.60;;;;;;5040037;28;20435;-83
2021/10/16 12:41:55;;;;;;;0.50;0.30;;;17.70;99.90;;;;;;5040811;28;20445;-80
2021/10/16 12:44:25;;;;;;;0.50;0.40;;;17.90;91.20;;;;;;5039441;28;20446;-81
2021/10/16 12:47:05;;;;;;;0.50;0.30;;;18.20;92.70;;;;;;5039484;28;20493;-80
2021/10/16 12:49:36;;;;;;;0.50;0.30;;;18.40;90.60;;;;;;5040243;28;20818;-81
2021/10/16 12:52:05;;;;;;;0.53;0.37;;;18.40;91.80;;;;;;5040060;28;20483;-81
2021/10/16 12:54:39;;;;;;;0.50;0.40;;;18.30;89.10;;;;;;5039103;28;20440;-81
2021/10/16 12:57:09;;;;;;;0.50;0.40;;;18.30;89.80;;;;;;5039408;28;20513;-82
2021/10/16 12:59:36;;;;;;;0.50;0.40;;;19.00;86.90;;;;;;5038700;28;20870;-81